sensor_id;sensor_type;location;lat;lon;timestamp;temperature;humidity
42339;DHT22;27993;45.392;10.918;2023-03-31T00:02:22;11.90;99.90
42339;DHT22;27993;45.392;10.918;2023-03-31T00:04:53;11.90;99.90
42339;DHT22;27993;45.392;10.918;2023-03-31T00:07:23;12.10;99.90
42339;DHT22;27993;45.392;10.918;2023-03-31T00:09:54;12.10;99.90
42339;DHT22;27993;45.392;10.918;2023-03-31T00:12:27;12.10;99.90
42339;DHT22;27993;45.392;10.918;2023-03-31T00:14:57;12.20;99.90
42339;DHT22;27993;45.392;10.918;2023-03-31T00:17:28;12.10;99.90
42339;DHT22;27993;45.392;10.918;2023-03-31T00:20:02;12.10;99.90
42339;DHT22;27993;45.392;10.918;2023-03-31T00:22:35;12.10;99.90
42339;DHT22;27993;45.392;10.918;2023-03-31T00:25:08;12.10;99.90
42339;DHT22;27993;45.392;10.918;2023-03-31T00:27:43;12.10;99.90
42339;DHT22;27993;45.392;10.918;2023-03-31T00:30:15;12.20;99.90
42339;DHT22;27993;45.392;10.918;2023-03-31T00:32:45;12.20;99.90
42339;DHT22;27993;45.392;10.918;2023-03-31T00:35:16;12.20;99.90
42339;DHT22;27993;45.392;10.918;2023-03-31T00:37:47;12.10;99.90
42339;DHT22;27993;45.392;10.918;2023-03-31T00:40:18;12.00;99.90
42339;DHT22;27993;45.392;10.918;2023-03-31T00:42:49;11.90;99.90
42339;DHT22;27993;45.392;10.918;2023-03-31T00:45:28;11.90;99.90
42339;DHT22;27993;45.392;10.918;2023-03-31T00:48:06;11.90;99.90
42339;DHT22;27993;45.392;10.918;2023-03-31T00:50:55;11.90;99.90
42339;DHT22;27993;45.392;10.918;2023-03-31T00:53:29;11.90;99.90
42339;DHT22;27993;45.392;10.918;2023-03-31T00:56:06;11.90;99.90
42339;DHT22;27993;45.392;10.918;2023-03-31T00:58:38;11.90;99.90
42339;DHT22;27993;45.392;10.918;2023-03-31T01:01:16;11.90;99.90
42339;DHT22;27993;45.392;10.918;2023-03-31T01:03:48;12.00;99.90
42339;DHT22;27993;45.392;10.918;2023-03-31T01:06:19;11.90;99.90
42339;DHT22;27993;45.392;10.918;2023-03-31T01:08:50;11.90;99.90
42339;DHT22;27993;45.392;10.918;2023-03-31T01:11:23;11.80;99.90
42339;DHT22;27993;45.392;10.918;2023-03-31T01:13:55;11.70;99.90
42339;DHT22;27993;45.392;10.918;2023-03-31T01:16:26;11.60;99.90
42339;DHT22;27993;45.392;10.918;2023-03-31T01:18:57;11.50;99.90
42339;DHT22;27993;45.392;10.918;2023-03-31T01:38:45;11.70;99.90
42339;DHT22;27993;45.392;10.918;2023-03-31T01:44:39;11.50;99.90
42339;DHT22;27993;45.392;10.918;2023-03-31T01:47:19;11.50;99.90
42339;DHT22;27993;45.392;10.918;2023-03-31T01:49:56;11.50;99.90
42339;DHT22;27993;45.392;10.918;2023-03-31T01:55:33;11.30;99.90
42339;DHT22;27993;45.392;10.918;2023-03-31T01:58:11;11.30;99.90
42339;DHT22;27993;45.392;10.918;2023-03-31T02:00:48;11.30;99.90
42339;DHT22;27993;45.392;10.918;2023-03-31T02:03:26;11.30;99.90
42339;DHT22;27993;45.392;10.918;2023-03-31T02:06:04;11.40;99.90
42339;DHT22;27993;45.392;10.918;2023-03-31T02:08:42;11.30;99.90
42339;DHT22;27993;45.392;10.918;2023-03-31T02:11:14;11.30;99.90
42339;DHT22;27993;45.392;10.918;2023-03-31T02:13:46;11.40;99.90
42339;DHT22;27993;45.392;10.918;2023-03-31T02:16:22;11.40;99.90
42339;DHT22;27993;45.392;10.918;2023-03-31T02:18:56;11.40;99.90
42339;DHT22;27993;45.392;10.918;2023-03-31T02:21:33;11.30;99.90
42339;DHT22;27993;45.392;10.918;2023-03-31T02:24:08;11.30;99.90
42339;DHT22;27993;45.392;10.918;2023-03-31T02:29:26;11.30;99.90
42339;DHT22;27993;45.392;10.918;2023-03-31T02:32:07;11.30;99.90
42339;DHT22;27993;45.392;10.918;2023-03-31T02:34:39;11.30;99.90
42339;DHT22;27993;45.392;10.918;2023-03-31T02:37:11;11.30;99.90
42339;DHT22;27993;45.392;10.918;2023-03-31T02:39:43;11.20;99.90
42339;DHT22;27993;45.392;10.918;2023-03-31T02:42:16;11.30;99.90
42339;DHT22;27993;45.392;10.918;2023-03-31T02:44:47;11.20;99.90
42339;DHT22;27993;45.392;10.918;2023-03-31T02:47:19;11.20;99.90
42339;DHT22;27993;45.392;10.918;2023-03-31T02:49:56;11.10;99.90
42339;DHT22;27993;45.392;10.918;2023-03-31T02:52:55;11.20;99.90
42339;DHT22;27993;45.392;10.918;2023-03-31T02:55:46;11.20;99.90
42339;DHT22;27993;45.392;10.918;2023-03-31T02:58:46;11.10;99.90
42339;DHT22;27993;45.392;10.918;2023-03-31T03:01:43;11.20;99.90
42339;DHT22;27993;45.392;10.918;2023-03-31T03:07:26;11.30;99.90
42339;DHT22;27993;45.392;10.918;2023-03-31T03:10:08;11.40;99.90
42339;DHT22;27993;45.392;10.918;2023-03-31T03:15:50;11.30;99.90
42339;DHT22;27993;45.392;10.918;2023-03-31T03:18:23;11.20;99.90
42339;DHT22;27993;45.392;10.918;2023-03-31T03:20:53;11.10;99.90
42339;DHT22;27993;45.392;10.918;2023-03-31T03:23:24;11.00;99.90
42339;DHT22;27993;45.392;10.918;2023-03-31T03:25:55;11.10;99.90
42339;DHT22;27993;45.392;10.918;2023-03-31T03:28:26;11.10;99.90
42339;DHT22;27993;45.392;10.918;2023-03-31T03:30:57;11.10;99.90
42339;DHT22;27993;45.392;10.918;2023-03-31T03:33:28;11.20;99.90
42339;DHT22;27993;45.392;10.918;2023-03-31T03:35:58;11.20;99.90
42339;DHT22;27993;45.392;10.918;2023-03-31T03:38:29;11.30;99.90
42339;DHT22;27993;45.392;10.918;2023-03-31T03:41:00;11.30;99.90
42339;DHT22;27993;45.392;10.918;2023-03-31T03:43:31;11.20;99.90
42339;DHT22;27993;45.392;10.918;2023-03-31T03:46:02;11.20;99.90
42339;DHT22;27993;45.392;10.918;2023-03-31T03:48:33;11.20;99.90
42339;DHT22;27993;45.392;10.918;2023-03-31T03:51:03;11.20;99.90
42339;DHT22;27993;45.392;10.918;2023-03-31T03:53:34;11.10;99.90
42339;DHT22;27993;45.392;10.918;2023-03-31T03:56:05;11.00;99.90
42339;DHT22;27993;45.392;10.918;2023-03-31T03:58:36;11.10;99.90
42339;DHT22;27993;45.392;10.918;2023-03-31T04:01:06;11.20;99.90
42339;DHT22;27993;45.392;10.918;2023-03-31T04:03:37;11.10;99.90
42339;DHT22;27993;45.392;10.918;2023-03-31T04:06:08;11.20;99.90
42339;DHT22;27993;45.392;10.918;2023-03-31T04:08:38;11.20;99.90
42339;DHT22;27993;45.392;10.918;2023-03-31T04:11:15;11.20;99.90
42339;DHT22;27993;45.392;10.918;2023-03-31T04:13:46;11.20;99.90
42339;DHT22;27993;45.392;10.918;2023-03-31T04:16:17;11.20;99.90
42339;DHT22;27993;45.392;10.918;2023-03-31T04:18:47;11.30;99.90
42339;DHT22;27993;45.392;10.918;2023-03-31T04:21:18;11.30;99.90
42339;DHT22;27993;45.392;10.918;2023-03-31T04:23:55;11.30;99.90
42339;DHT22;27993;45.392;10.918;2023-03-31T04:26:33;11.40;99.90
42339;DHT22;27993;45.392;10.918;2023-03-31T04:29:14;11.40;99.90
42339;DHT22;27993;45.392;10.918;2023-03-31T04:31:50;11.30;99.90
42339;DHT22;27993;45.392;10.918;2023-03-31T04:34:22;11.30;99.90
42339;DHT22;27993;45.392;10.918;2023-03-31T04:36:56;11.30;99.90
42339;DHT22;27993;45.392;10.918;2023-03-31T04:39:26;11.40;99.90
42339;DHT22;27993;45.392;10.918;2023-03-31T04:42:00;11.30;99.90
42339;DHT22;27993;45.392;10.918;2023-03-31T04:44:31;11.30;99.90
42339;DHT22;27993;45.392;10.918;2023-03-31T04:47:01;11.30;99.90
42339;DHT22;27993;45.392;10.918;2023-03-31T04:49:32;11.30;99.90
42339;DHT22;27993;45.392;10.918;2023-03-31T04:52:03;11.40;99.90
42339;DHT22;27993;45.392;10.918;2023-03-31T04:54:33;11.40;99.90
42339;DHT22;27993;45.392;10.918;2023-03-31T04:57:04;11.50;99.90
42339;DHT22;27993;45.392;10.918;2023-03-31T04:59:34;11.50;99.90
42339;DHT22;27993;45.392;10.918;2023-03-31T05:02:05;11.50;99.90
42339;DHT22;27993;45.392;10.918;2023-03-31T05:04:36;11.50;99.90
42339;DHT22;27993;45.392;10.918;2023-03-31T05:07:07;11.50;99.90
42339;DHT22;27993;45.392;10.918;2023-03-31T05:09:37;11.50;99.90
42339;DHT22;27993;45.392;10.918;2023-03-31T05:12:08;11.50;99.90
42339;DHT22;27993;45.392;10.918;2023-03-31T05:14:38;11.50;99.90
42339;DHT22;27993;45.392;10.918;2023-03-31T05:17:09;11.50;99.90
42339;DHT22;27993;45.392;10.918;2023-03-31T05:19:40;11.40;99.90
42339;DHT22;27993;45.392;10.918;2023-03-31T05:22:11;11.50;99.90
42339;DHT22;27993;45.392;10.918;2023-03-31T05:24:41;11.50;99.90
42339;DHT22;27993;45.392;10.918;2023-03-31T05:27:12;11.60;99.90
42339;DHT22;27993;45.392;10.918;2023-03-31T05:29:43;11.60;99.90
42339;DHT22;27993;45.392;10.918;2023-03-31T05:32:13;11.50;99.90
42339;DHT22;27993;45.392;10.918;2023-03-31T05:34:44;11.50;99.90
42339;DHT22;27993;45.392;10.918;2023-03-31T05:37:15;11.40;99.90
42339;DHT22;27993;45.392;10.918;2023-03-31T05:39:46;11.40;99.90
42339;DHT22;27993;45.392;10.918;2023-03-31T05:42:16;11.50;99.90
42339;DHT22;27993;45.392;10.918;2023-03-31T05:44:47;11.60;99.90
42339;DHT22;27993;45.392;10.918;2023-03-31T05:47:17;11.60;99.90
42339;DHT22;27993;45.392;10.918;2023-03-31T05:49:48;11.70;99.90
42339;DHT22;27993;45.392;10.918;2023-03-31T05:52:19;11.70;99.90
42339;DHT22;27993;45.392;10.918;2023-03-31T05:54:49;11.70;99.90
42339;DHT22;27993;45.392;10.918;2023-03-31T05:57:20;11.70;99.90
42339;DHT22;27993;45.392;10.918;2023-03-31T05:59:50;11.70;99.90
42339;DHT22;27993;45.392;10.918;2023-03-31T06:02:21;11.70;99.90
42339;DHT22;27993;45.392;10.918;2023-03-31T06:04:52;11.60;99.90
42339;DHT22;27993;45.392;10.918;2023-03-31T06:07:23;11.60;99.90
42339;DHT22;27993;45.392;10.918;2023-03-31T06:09:54;11.60;99.90
42339;DHT22;27993;45.392;10.918;2023-03-31T06:12:24;11.60;99.90
42339;DHT22;27993;45.392;10.918;2023-03-31T06:14:55;11.60;99.90
42339;DHT22;27993;45.392;10.918;2023-03-31T06:17:26;11.60;99.90
42339;DHT22;27993;45.392;10.918;2023-03-31T06:19:57;11.60;99.90
42339;DHT22;27993;45.392;10.918;2023-03-31T06:22:27;11.70;99.90
42339;DHT22;27993;45.392;10.918;2023-03-31T06:24:58;11.70;99.90
42339;DHT22;27993;45.392;10.918;2023-03-31T06:27:28;11.70;99.90
42339;DHT22;27993;45.392;10.918;2023-03-31T06:29:59;11.60;99.90
42339;DHT22;27993;45.392;10.918;2023-03-31T06:32:29;11.70;99.90
42339;DHT22;27993;45.392;10.918;2023-03-31T06:35:00;11.60;99.90
42339;DHT22;27993;45.392;10.918;2023-03-31T06:37:31;11.60;99.90
42339;DHT22;27993;45.392;10.918;2023-03-31T06:40:01;11.50;99.90
42339;DHT22;27993;45.392;10.918;2023-03-31T06:42:32;11.50;99.90
42339;DHT22;27993;45.392;10.918;2023-03-31T06:45:04;11.50;99.90
42339;DHT22;27993;45.392;10.918;2023-03-31T06:47:35;11.40;99.90
42339;DHT22;27993;45.392;10.918;2023-03-31T06:50:09;11.50;99.90
42339;DHT22;27993;45.392;10.918;2023-03-31T06:52:39;11.50;99.90
42339;DHT22;27993;45.392;10.918;2023-03-31T06:55:10;11.50;99.90
42339;DHT22;27993;45.392;10.918;2023-03-31T06:57:42;11.50;99.90
42339;DHT22;27993;45.392;10.918;2023-03-31T07:00:13;11.40;99.90
42339;DHT22;27993;45.392;10.918;2023-03-31T07:02:44;11.40;99.90
42339;DHT22;27993;45.392;10.918;2023-03-31T07:05:14;11.40;99.90
42339;DHT22;27993;45.392;10.918;2023-03-31T07:07:45;11.50;99.90
42339;DHT22;27993;45.392;10.918;2023-03-31T07:10:16;11.50;99.90
42339;DHT22;27993;45.392;10.918;2023-03-31T07:12:46;11.50;99.90
42339;DHT22;27993;45.392;10.918;2023-03-31T07:15:17;11.50;99.90
42339;DHT22;27993;45.392;10.918;2023-03-31T07:17:48;11.50;99.90
42339;DHT22;27993;45.392;10.918;2023-03-31T07:20:20;11.60;99.90
42339;DHT22;27993;45.392;10.918;2023-03-31T07:22:50;11.50;99.90
42339;DHT22;27993;45.392;10.918;2023-03-31T07:25:21;11.70;99.90
42339;DHT22;27993;45.392;10.918;2023-03-31T07:27:52;11.60;99.90
42339;DHT22;27993;45.392;10.918;2023-03-31T07:30:23;11.70;99.90
42339;DHT22;27993;45.392;10.918;2023-03-31T07:32:54;11.70;99.90
42339;DHT22;27993;45.392;10.918;2023-03-31T07:35:24;11.70;99.90
42339;DHT22;27993;45.392;10.918;2023-03-31T07:37:55;11.70;99.90
42339;DHT22;27993;45.392;10.918;2023-03-31T07:40:28;11.80;99.90
42339;DHT22;27993;45.392;10.918;2023-03-31T07:42:58;11.80;99.90
42339;DHT22;27993;45.392;10.918;2023-03-31T07:45:29;11.80;99.90
42339;DHT22;27993;45.392;10.918;2023-03-31T07:48:00;11.80;99.90
42339;DHT22;27993;45.392;10.918;2023-03-31T07:50:30;11.80;99.90
42339;DHT22;27993;45.392;10.918;2023-03-31T07:53:01;11.80;99.90
42339;DHT22;27993;45.392;10.918;2023-03-31T07:55:31;11.70;99.90
42339;DHT22;27993;45.392;10.918;2023-03-31T07:58:02;11.80;99.90
42339;DHT22;27993;45.392;10.918;2023-03-31T08:00:33;11.90;99.90
42339;DHT22;27993;45.392;10.918;2023-03-31T08:03:03;11.90;99.90
42339;DHT22;27993;45.392;10.918;2023-03-31T08:05:34;12.00;99.90
42339;DHT22;27993;45.392;10.918;2023-03-31T08:08:05;11.90;99.90
42339;DHT22;27993;45.392;10.918;2023-03-31T08:10:35;12.00;99.90
42339;DHT22;27993;45.392;10.918;2023-03-31T08:13:06;12.10;99.90
42339;DHT22;27993;45.392;10.918;2023-03-31T08:15:37;12.10;99.90
42339;DHT22;27993;45.392;10.918;2023-03-31T08:18:07;12.10;99.90
42339;DHT22;27993;45.392;10.918;2023-03-31T08:20:38;12.10;99.90
42339;DHT22;27993;45.392;10.918;2023-03-31T08:23:09;12.10;99.90
42339;DHT22;27993;45.392;10.918;2023-03-31T08:25:41;12.20;99.90
42339;DHT22;27993;45.392;10.918;2023-03-31T08:28:12;12.00;99.90
42339;DHT22;27993;45.392;10.918;2023-03-31T08:30:43;12.20;99.90
42339;DHT22;27993;45.392;10.918;2023-03-31T08:33:14;12.20;99.90
42339;DHT22;27993;45.392;10.918;2023-03-31T08:35:44;12.30;99.90
42339;DHT22;27993;45.392;10.918;2023-03-31T08:38:15;12.30;99.90
42339;DHT22;27993;45.392;10.918;2023-03-31T08:40:46;12.30;99.90
42339;DHT22;27993;45.392;10.918;2023-03-31T08:43:24;12.30;99.90
42339;DHT22;27993;45.392;10.918;2023-03-31T08:45:56;12.40;99.90
42339;DHT22;27993;45.392;10.918;2023-03-31T08:48:36;12.40;99.90
42339;DHT22;27993;45.392;10.918;2023-03-31T08:51:17;12.50;99.90
42339;DHT22;27993;45.392;10.918;2023-03-31T08:56:37;12.50;99.90
42339;DHT22;27993;45.392;10.918;2023-03-31T09:01:59;12.60;99.90
42339;DHT22;27993;45.392;10.918;2023-03-31T09:15:39;12.50;99.90
42339;DHT22;27993;45.392;10.918;2023-03-31T09:21:03;12.50;99.90
42339;DHT22;27993;45.392;10.918;2023-03-31T09:23:39;12.60;99.90
42339;DHT22;27993;45.392;10.918;2023-03-31T09:26:23;12.70;99.90
42339;DHT22;27993;45.392;10.918;2023-03-31T09:28:57;12.70;99.90
42339;DHT22;27993;45.392;10.918;2023-03-31T09:31:30;12.90;99.90
42339;DHT22;27993;45.392;10.918;2023-03-31T09:34:13;13.00;99.90
42339;DHT22;27993;45.392;10.918;2023-03-31T09:36:44;13.20;99.90
42339;DHT22;27993;45.392;10.918;2023-03-31T09:39:15;13.10;99.90
42339;DHT22;27993;45.392;10.918;2023-03-31T09:41:49;13.10;99.90
42339;DHT22;27993;45.392;10.918;2023-03-31T09:44:42;13.20;99.90
42339;DHT22;27993;45.392;10.918;2023-03-31T09:50:05;13.20;99.90
42339;DHT22;27993;45.392;10.918;2023-03-31T09:52:40;13.20;99.90
42339;DHT22;27993;45.392;10.918;2023-03-31T09:55:21;13.30;99.90
42339;DHT22;27993;45.392;10.918;2023-03-31T09:57:53;13.40;99.90
42339;DHT22;27993;45.392;10.918;2023-03-31T10:00:24;13.40;99.90
42339;DHT22;27993;45.392;10.918;2023-03-31T10:03:00;13.40;99.90
42339;DHT22;27993;45.392;10.918;2023-03-31T10:05:36;13.40;99.90
42339;DHT22;27993;45.392;10.918;2023-03-31T10:08:17;13.50;99.90
42339;DHT22;27993;45.392;10.918;2023-03-31T10:10:56;13.70;99.90
42339;DHT22;27993;45.392;10.918;2023-03-31T10:16:29;13.80;99.90
42339;DHT22;27993;45.392;10.918;2023-03-31T10:22:01;14.00;99.90
42339;DHT22;27993;45.392;10.918;2023-03-31T10:24:43;14.50;99.90
42339;DHT22;27993;45.392;10.918;2023-03-31T10:27:32;14.30;99.90
42339;DHT22;27993;45.392;10.918;2023-03-31T10:30:04;14.40;99.90
42339;DHT22;27993;45.392;10.918;2023-03-31T10:32:40;14.50;99.90
42339;DHT22;27993;45.392;10.918;2023-03-31T10:35:33;14.60;99.90
42339;DHT22;27993;45.392;10.918;2023-03-31T10:38:14;14.70;99.90
42339;DHT22;27993;45.392;10.918;2023-03-31T10:40:49;14.60;99.90
42339;DHT22;27993;45.392;10.918;2023-03-31T10:44:28;14.60;99.90
42339;DHT22;27993;45.392;10.918;2023-03-31T10:46:15;14.70;99.90
42339;DHT22;27993;45.392;10.918;2023-03-31T10:48:46;14.70;99.90
42339;DHT22;27993;45.392;10.918;2023-03-31T10:51:18;14.70;99.90
42339;DHT22;27993;45.392;10.918;2023-03-31T10:53:51;14.90;99.90
42339;DHT22;27993;45.392;10.918;2023-03-31T11:16:17;16.00;99.90
42339;DHT22;27993;45.392;10.918;2023-03-31T11:19:29;16.70;99.90
42339;DHT22;27993;45.392;10.918;2023-03-31T11:22:14;16.60;99.90
42339;DHT22;27993;45.392;10.918;2023-03-31T11:30:21;16.40;99.90
42339;DHT22;27993;45.392;10.918;2023-03-31T11:41:49;16.70;99.90
42339;DHT22;27993;45.392;10.918;2023-03-31T11:44:23;16.70;99.90
42339;DHT22;27993;45.392;10.918;2023-03-31T11:46:57;16.70;99.90
42339;DHT22;27993;45.392;10.918;2023-03-31T11:49:44;17.10;99.90
42339;DHT22;27993;45.392;10.918;2023-03-31T11:52:18;17.60;99.90
42339;DHT22;27993;45.392;10.918;2023-03-31T11:54:59;17.40;99.90
42339;DHT22;27993;45.392;10.918;2023-03-31T12:00:18;17.70;99.90
42339;DHT22;27993;45.392;10.918;2023-03-31T12:05:38;17.60;99.90
42339;DHT22;27993;45.392;10.918;2023-03-31T12:08:34;17.50;99.90
42339;DHT22;27993;45.392;10.918;2023-03-31T12:11:10;17.40;99.90
42339;DHT22;27993;45.392;10.918;2023-03-31T12:13:50;17.60;99.90
42339;DHT22;27993;45.392;10.918;2023-03-31T12:16:25;17.60;99.90
42339;DHT22;27993;45.392;10.918;2023-03-31T12:21:49;17.20;99.90
42339;DHT22;27993;45.392;10.918;2023-03-31T12:24:21;17.20;99.90
42339;DHT22;27993;45.392;10.918;2023-03-31T12:29:57;17.30;99.90
42339;DHT22;27993;45.392;10.918;2023-03-31T12:32:33;17.20;99.90
42339;DHT22;27993;45.392;10.918;2023-03-31T12:35:38;17.30;99.90
42339;DHT22;27993;45.392;10.918;2023-03-31T12:41:08;17.20;99.90
42339;DHT22;27993;45.392;10.918;2023-03-31T12:43:54;17.20;99.90
42339;DHT22;27993;45.392;10.918;2023-03-31T12:46:32;17.20;99.90
42339;DHT22;27993;45.392;10.918;2023-03-31T12:52:01;17.30;99.90
42339;DHT22;27993;45.392;10.918;2023-03-31T12:57:32;17.00;99.90
42339;DHT22;27993;45.392;10.918;2023-03-31T13:00:14;16.90;99.90
42339;DHT22;27993;45.392;10.918;2023-03-31T13:02:49;16.80;99.90
42339;DHT22;27993;45.392;10.918;2023-03-31T13:08:09;16.90;99.90
42339;DHT22;27993;45.392;10.918;2023-03-31T13:10:57;16.90;99.90
42339;DHT22;27993;45.392;10.918;2023-03-31T13:13:28;16.90;99.90
42339;DHT22;27993;45.392;10.918;2023-03-31T13:16:00;16.90;99.90
42339;DHT22;27993;45.392;10.918;2023-03-31T13:18:33;16.90;99.90
42339;DHT22;27993;45.392;10.918;2023-03-31T13:21:04;17.00;99.90
42339;DHT22;27993;45.392;10.918;2023-03-31T13:23:43;17.00;99.90
42339;DHT22;27993;45.392;10.918;2023-03-31T13:26:40;17.00;99.90
42339;DHT22;27993;45.392;10.918;2023-03-31T13:34:35;17.10;99.90
42339;DHT22;27993;45.392;10.918;2023-03-31T13:37:16;17.00;99.90
42339;DHT22;27993;45.392;10.918;2023-03-31T13:48:19;16.60;99.90
42339;DHT22;27993;45.392;10.918;2023-03-31T13:56:42;16.90;99.90
42339;DHT22;27993;45.392;10.918;2023-03-31T14:11:17;16.90;99.90
42339;DHT22;27993;45.392;10.918;2023-03-31T14:14:12;16.80;99.90
42339;DHT22;27993;45.392;10.918;2023-03-31T14:16:50;16.70;99.90
42339;DHT22;27993;45.392;10.918;2023-03-31T14:22:25;16.80;99.90
42339;DHT22;27993;45.392;10.918;2023-03-31T14:30:51;16.50;99.90
42339;DHT22;27993;45.392;10.918;2023-03-31T14:34:03;16.50;99.90
42339;DHT22;27993;45.392;10.918;2023-03-31T14:39:46;16.40;99.90
42339;DHT22;27993;45.392;10.918;2023-03-31T14:42:20;16.30;99.90
42339;DHT22;27993;45.392;10.918;2023-03-31T14:45:02;16.30;99.90
42339;DHT22;27993;45.392;10.918;2023-03-31T14:47:33;16.40;99.90
42339;DHT22;27993;45.392;10.918;2023-03-31T14:50:16;16.50;99.90
42339;DHT22;27993;45.392;10.918;2023-03-31T14:52:49;16.60;99.90
42339;DHT22;27993;45.392;10.918;2023-03-31T14:55:24;16.60;99.90
42339;DHT22;27993;45.392;10.918;2023-03-31T14:57:58;16.60;99.90
42339;DHT22;27993;45.392;10.918;2023-03-31T15:00:32;16.60;99.90
42339;DHT22;27993;45.392;10.918;2023-03-31T15:03:06;16.60;99.90
42339;DHT22;27993;45.392;10.918;2023-03-31T15:05:39;16.50;99.90
42339;DHT22;27993;45.392;10.918;2023-03-31T15:08:10;16.40;99.90
42339;DHT22;27993;45.392;10.918;2023-03-31T15:10:44;16.40;99.90
42339;DHT22;27993;45.392;10.918;2023-03-31T15:13:21;16.40;99.90
42339;DHT22;27993;45.392;10.918;2023-03-31T15:15:55;16.30;99.90
42339;DHT22;27993;45.392;10.918;2023-03-31T15:18:26;16.20;99.90
42339;DHT22;27993;45.392;10.918;2023-03-31T15:20:57;16.20;99.90
42339;DHT22;27993;45.392;10.918;2023-03-31T15:23:28;16.20;99.90
42339;DHT22;27993;45.392;10.918;2023-03-31T15:26:08;16.20;99.90
42339;DHT22;27993;45.392;10.918;2023-03-31T15:28:46;16.10;99.90
42339;DHT22;27993;45.392;10.918;2023-03-31T15:31:19;16.10;99.90
42339;DHT22;27993;45.392;10.918;2023-03-31T15:33:50;15.90;99.90
42339;DHT22;27993;45.392;10.918;2023-03-31T15:36:21;15.90;99.90
42339;DHT22;27993;45.392;10.918;2023-03-31T15:38:57;15.90;99.90
42339;DHT22;27993;45.392;10.918;2023-03-31T15:41:29;15.80;99.90
42339;DHT22;27993;45.392;10.918;2023-03-31T15:44:06;15.80;99.90
42339;DHT22;27993;45.392;10.918;2023-03-31T15:49:20;15.90;99.90
42339;DHT22;27993;45.392;10.918;2023-03-31T15:51:52;15.80;99.90
42339;DHT22;27993;45.392;10.918;2023-03-31T15:54:40;15.80;99.90
42339;DHT22;27993;45.392;10.918;2023-03-31T15:57:14;15.80;99.90
42339;DHT22;27993;45.392;10.918;2023-03-31T15:59:50;15.80;99.90
42339;DHT22;27993;45.392;10.918;2023-03-31T16:02:23;15.70;99.90
42339;DHT22;27993;45.392;10.918;2023-03-31T16:04:57;15.70;99.90
42339;DHT22;27993;45.392;10.918;2023-03-31T16:07:32;15.70;99.90
42339;DHT22;27993;45.392;10.918;2023-03-31T16:10:18;15.70;99.90
42339;DHT22;27993;45.392;10.918;2023-03-31T16:13:05;15.60;99.90
42339;DHT22;27993;45.392;10.918;2023-03-31T16:15:45;15.60;99.90
42339;DHT22;27993;45.392;10.918;2023-03-31T16:20:55;15.60;99.90
42339;DHT22;27993;45.392;10.918;2023-03-31T16:23:29;15.60;99.90
42339;DHT22;27993;45.392;10.918;2023-03-31T16:26:01;15.60;99.90
42339;DHT22;27993;45.392;10.918;2023-03-31T16:28:34;15.60;99.90
42339;DHT22;27993;45.392;10.918;2023-03-31T16:34:08;15.50;99.90
42339;DHT22;27993;45.392;10.918;2023-03-31T16:36:40;15.50;99.90
42339;DHT22;27993;45.392;10.918;2023-03-31T16:39:10;15.50;99.90
42339;DHT22;27993;45.392;10.918;2023-03-31T16:41:41;15.40;99.90
42339;DHT22;27993;45.392;10.918;2023-03-31T16:44:12;15.30;99.90
42339;DHT22;27993;45.392;10.918;2023-03-31T16:46:42;15.30;99.90
42339;DHT22;27993;45.392;10.918;2023-03-31T16:49:13;15.30;99.90
42339;DHT22;27993;45.392;10.918;2023-03-31T16:51:43;15.20;99.90
42339;DHT22;27993;45.392;10.918;2023-03-31T16:54:14;15.20;99.90
42339;DHT22;27993;45.392;10.918;2023-03-31T16:56:45;15.20;99.90
42339;DHT22;27993;45.392;10.918;2023-03-31T16:59:17;15.20;99.90
42339;DHT22;27993;45.392;10.918;2023-03-31T17:01:47;15.10;99.90
42339;DHT22;27993;45.392;10.918;2023-03-31T17:04:18;15.20;99.90
42339;DHT22;27993;45.392;10.918;2023-03-31T17:06:50;15.10;99.90
42339;DHT22;27993;45.392;10.918;2023-03-31T17:09:21;15.20;99.90
42339;DHT22;27993;45.392;10.918;2023-03-31T17:11:52;15.30;99.90
42339;DHT22;27993;45.392;10.918;2023-03-31T17:14:22;15.20;99.90
42339;DHT22;27993;45.392;10.918;2023-03-31T17:16:54;15.30;99.90
42339;DHT22;27993;45.392;10.918;2023-03-31T17:19:24;15.30;99.90
42339;DHT22;27993;45.392;10.918;2023-03-31T17:21:56;15.20;99.90
42339;DHT22;27993;45.392;10.918;2023-03-31T17:24:31;15.20;99.90
42339;DHT22;27993;45.392;10.918;2023-03-31T17:27:01;15.10;99.90
42339;DHT22;27993;45.392;10.918;2023-03-31T17:29:32;15.10;99.90
42339;DHT22;27993;45.392;10.918;2023-03-31T17:32:02;14.90;99.90
42339;DHT22;27993;45.392;10.918;2023-03-31T17:34:33;14.90;99.90
42339;DHT22;27993;45.392;10.918;2023-03-31T17:37:04;14.90;99.90
42339;DHT22;27993;45.392;10.918;2023-03-31T17:39:34;14.90;99.90
42339;DHT22;27993;45.392;10.918;2023-03-31T17:42:05;14.80;99.90
42339;DHT22;27993;45.392;10.918;2023-03-31T17:44:36;14.70;99.90
42339;DHT22;27993;45.392;10.918;2023-03-31T17:47:07;14.60;99.90
42339;DHT22;27993;45.392;10.918;2023-03-31T17:49:38;14.50;99.90
42339;DHT22;27993;45.392;10.918;2023-03-31T17:52:08;14.50;99.90
42339;DHT22;27993;45.392;10.918;2023-03-31T17:54:40;14.30;99.90
42339;DHT22;27993;45.392;10.918;2023-03-31T17:57:11;14.30;99.90
42339;DHT22;27993;45.392;10.918;2023-03-31T17:59:42;14.10;99.90
42339;DHT22;27993;45.392;10.918;2023-03-31T18:02:14;14.20;99.90
42339;DHT22;27993;45.392;10.918;2023-03-31T18:04:45;14.10;99.90
42339;DHT22;27993;45.392;10.918;2023-03-31T18:07:16;14.30;99.90
42339;DHT22;27993;45.392;10.918;2023-03-31T18:09:52;14.30;99.90
42339;DHT22;27993;45.392;10.918;2023-03-31T18:12:23;14.30;99.90
42339;DHT22;27993;45.392;10.918;2023-03-31T18:14:53;14.20;99.90
42339;DHT22;27993;45.392;10.918;2023-03-31T18:17:25;14.20;99.90
42339;DHT22;27993;45.392;10.918;2023-03-31T18:19:56;14.20;99.90
42339;DHT22;27993;45.392;10.918;2023-03-31T18:22:28;14.20;99.90
42339;DHT22;27993;45.392;10.918;2023-03-31T18:24:59;14.20;99.90
42339;DHT22;27993;45.392;10.918;2023-03-31T18:27:30;14.20;99.90
42339;DHT22;27993;45.392;10.918;2023-03-31T18:30:01;14.20;99.90
42339;DHT22;27993;45.392;10.918;2023-03-31T18:32:31;14.10;99.90
42339;DHT22;27993;45.392;10.918;2023-03-31T18:35:02;14.10;99.90
42339;DHT22;27993;45.392;10.918;2023-03-31T18:37:33;14.20;99.90
42339;DHT22;27993;45.392;10.918;2023-03-31T18:40:04;14.20;99.90
42339;DHT22;27993;45.392;10.918;2023-03-31T18:42:35;14.20;99.90
42339;DHT22;27993;45.392;10.918;2023-03-31T18:45:07;14.20;99.90
42339;DHT22;27993;45.392;10.918;2023-03-31T18:47:38;14.20;99.90